D64 weather

Westhope Municipal Airport
Westhope, North Dakota, United States

Public forecast

Using degrees Fahrenheit for public forecast. Weather courtesy of forecast.io.

METAR (pilot weather report)

Closest report is Minot Air Force Base, 32.5 nm (60.3 km) SSW. Retrieved 2019/09/24 06:56 UTC (43 minutes ago):

KMIB 240656Z AUTO 26005KT 10SM SCT100 SCT130 16/12 A2967 RMK AO2 SLP047 T01570115 $

TAF (pilot weather forecast)

Forecast is more than 6 hours old.

Closest forecast is Minot Air Force Base, 32.5 nm (60.3 km) SSW. Retrieved 2019/09/24 01:07 UTC (7 hours ago):

TAF KMIB 240100Z 2401/2507 22009KT 9999 FEW080 QNH2954INS BECMG 2415/2416 27015G25KT 9999 SCT050 BKN070 QNH2955INS BECMG 2421/2422 30009KT 9999 SCT050 BKN080 QNH2970INS TX23/2401Z TN11/2407Z